Archival Weather

Fayette Rgnl Air Cntr Arp

Fayette Rgnl Air Cntr Arp, Texas (K3T5)

Report from: Thursday, September 22, 2022 4:35 AM CDT
Current time: Friday, February 3, 2023 11:23 PM CST

Current weather
Weather history
Weather forecast

Temperature21.3°C (70.3°F)
Dew point20.8°C (69.4°F)
Winds Calm
Visibility10 mi. (16.1 km)
Clouds Sky clear
Altimeter29.98 in.Hg (1015 mB)
Relative humidity97 %
Density altitude1,000 ft. (305 m)
Remarks Fully automated report
Automated weather observing station with precipitation discriminator
Flight conditions Visual Meteorological Conditions
Raw dataK3T5 220935Z AUTO 00000KT 10SM CLR 21/21 A2998 RMK AO2 T02130208
An unhandled exception has occurred. See browser dev tools for details. Reload 🗙